createdAt,value
2023-01-12T00:00:39.546Z,10.67
2023-01-12T00:03:09.360Z,15.80
2023-01-12T00:05:36.224Z,14.80
2023-01-12T00:08:05.315Z,12.13
2023-01-12T00:10:32.528Z,13.27
2023-01-12T00:13:00.081Z,16.73
2023-01-12T00:15:45.468Z,11.40
2023-01-12T00:18:13.243Z,19.30
2023-01-12T00:20:41.347Z,12.07
2023-01-12T00:23:09.151Z,14.27
2023-01-12T00:25:36.165Z,15.43
2023-01-12T00:28:03.656Z,12.70
2023-01-12T00:30:31.425Z,14.50
2023-01-12T00:32:58.288Z,13.83
2023-01-12T00:35:25.807Z,17.00
2023-01-12T00:37:53.465Z,15.67
2023-01-12T00:40:20.945Z,12.27
2023-01-12T00:43:06.613Z,12.97
2023-01-12T00:45:33.616Z,11.47
2023-01-12T00:48:00.363Z,11.03
2023-01-12T00:50:27.159Z,12.10
2023-01-12T00:52:54.768Z,13.20
2023-01-12T00:55:22.237Z,15.53
2023-01-12T00:57:49.257Z,14.13
2023-01-12T01:00:16.849Z,12.97
2023-01-12T01:02:44.757Z,15.30
2023-01-12T01:05:12.069Z,11.87
2023-01-12T01:07:39.484Z,12.70
2023-01-12T01:10:06.978Z,13.60
2023-01-12T01:12:33.776Z,12.67
2023-01-12T01:15:00.728Z,11.93
2023-01-12T01:17:29.367Z,14.67
2023-01-12T01:19:57.006Z,15.37
2023-01-12T01:22:23.877Z,18.20
2023-01-12T01:24:50.643Z,16.63
2023-01-12T01:27:17.502Z,14.67
2023-01-12T01:29:44.377Z,18.30
2023-01-12T01:32:11.239Z,12.77
2023-01-12T01:34:38.168Z,18.90
2023-01-12T01:37:05.209Z,15.93
2023-01-12T01:39:32.081Z,15.73
2023-01-12T01:41:58.984Z,16.73
2023-01-12T01:44:31.989Z,17.07
2023-01-12T01:47:00.433Z,14.87
2023-01-12T01:49:39.584Z,15.23
2023-01-12T01:52:26.657Z,17.87
2023-01-12T01:54:56.741Z,19.07
2023-01-12T01:57:26.678Z,15.53
2023-01-12T01:59:54.794Z,19.17
2023-01-12T02:02:22.791Z,16.60
2023-01-12T02:04:49.578Z,14.93
2023-01-12T02:07:16.402Z,12.03
2023-01-12T02:09:43.297Z,16.47
2023-01-12T02:12:28.600Z,14.67
2023-01-12T02:15:14.019Z,14.27
2023-01-12T02:17:43.650Z,15.33
2023-01-12T02:20:22.626Z,14.87
2023-01-12T02:22:55.775Z,13.53
2023-01-12T02:25:37.790Z,17.37
2023-01-12T02:28:17.140Z,17.30
2023-01-12T02:31:07.660Z,17.83
2023-01-12T02:33:43.731Z,14.97
2023-01-12T02:36:22.541Z,12.37
2023-01-12T02:39:08.049Z,14.80
2023-01-12T02:42:27.354Z,15.20
2023-01-12T02:45:14.462Z,15.33
2023-01-12T02:47:47.692Z,15.20
2023-01-12T02:50:26.956Z,14.13
2023-01-12T02:52:56.816Z,14.33
2023-01-12T02:55:24.855Z,16.50
2023-01-12T02:57:53.169Z,17.90
2023-01-12T03:00:20.051Z,15.17
2023-01-12T03:02:47.025Z,16.37
2023-01-12T03:05:14.160Z,19.30
2023-01-12T03:07:47.162Z,14.23
2023-01-12T03:10:14.037Z,18.57
2023-01-12T03:12:41.573Z,19.80
2023-01-12T03:15:10.032Z,17.10
2023-01-12T03:17:40.378Z,13.87
2023-01-12T03:20:10.871Z,13.37
2023-01-12T03:22:38.233Z,14.97
2023-01-12T03:25:10.546Z,15.07
2023-01-12T03:27:40.585Z,14.30
2023-01-12T03:30:10.589Z,14.93
2023-01-12T03:32:37.570Z,18.80
2023-01-12T03:35:05.871Z,17.53
2023-01-12T03:37:34.892Z,14.97
2023-01-12T03:40:11.826Z,13.13
2023-01-12T03:42:41.918Z,15.10
2023-01-12T03:45:09.445Z,17.83
2023-01-12T03:47:37.191Z,15.27
2023-01-12T03:50:06.651Z,16.30
2023-01-12T03:52:35.493Z,15.73
2023-01-12T03:55:03.855Z,17.00
2023-01-12T03:57:31.729Z,20.30
2023-01-12T03:59:59.983Z,15.03
2023-01-12T04:02:26.807Z,13.63
2023-01-12T04:04:53.684Z,14.30
2023-01-12T04:07:20.590Z,13.33
2023-01-12T04:09:47.381Z,16.37
2023-01-12T04:12:14.259Z,17.00
2023-01-12T04:14:42.321Z,20.10
2023-01-12T04:17:10.119Z,22.70
2023-01-12T04:19:36.970Z,31.77
2023-01-12T04:22:22.510Z,22.30
2023-01-12T04:24:49.800Z,26.37
2023-01-12T04:27:17.012Z,25.07
2023-01-12T04:29:44.053Z,25.00
2023-01-12T04:32:10.972Z,22.13
2023-01-12T04:34:39.307Z,20.67
2023-01-12T04:37:06.115Z,25.73
2023-01-12T04:39:33.052Z,22.17
2023-01-12T04:41:59.839Z,22.20
2023-01-12T04:44:26.804Z,23.23
2023-01-12T04:46:53.877Z,21.47
2023-01-12T04:49:20.742Z,28.40
2023-01-12T04:51:47.730Z,23.37
2023-01-12T04:54:15.272Z,22.30
2023-01-12T04:56:42.222Z,21.30
2023-01-12T04:59:10.810Z,23.73
2023-01-12T05:01:39.352Z,20.97
2023-01-12T05:04:07.995Z,23.87
2023-01-12T05:06:35.262Z,21.30
2023-01-12T05:09:20.680Z,19.57
2023-01-12T05:11:47.467Z,17.73
2023-01-12T05:14:14.339Z,17.67
2023-01-12T05:16:41.212Z,17.67
2023-01-12T05:19:08.788Z,17.57
2023-01-12T05:21:35.698Z,16.87
2023-01-12T05:24:02.458Z,16.17
2023-01-12T05:26:29.666Z,19.33
2023-01-12T05:28:56.634Z,17.73
2023-01-12T05:31:23.686Z,15.50
2023-01-12T05:33:50.719Z,19.93
2023-01-12T05:36:18.062Z,17.43
2023-01-12T05:38:44.832Z,17.50
2023-01-12T05:41:13.444Z,17.30
2023-01-12T05:43:52.891Z,16.47
2023-01-12T05:46:24.379Z,30.17
2023-01-12T05:48:52.144Z,18.43
2023-01-12T05:51:19.600Z,19.60
2023-01-12T05:53:46.559Z,21.03
2023-01-12T05:56:19.594Z,18.30
2023-01-12T05:58:50.514Z,18.37
2023-01-12T06:01:17.415Z,17.83
2023-01-12T06:03:44.482Z,15.17
2023-01-12T06:06:11.320Z,18.13
2023-01-12T06:08:38.153Z,15.07
2023-01-12T06:11:05.025Z,21.40
2023-01-12T06:13:50.359Z,24.33
2023-01-12T06:16:17.465Z,17.03
2023-01-12T06:18:44.259Z,18.17
2023-01-12T06:21:11.257Z,21.33
2023-01-12T06:23:38.095Z,17.13
2023-01-12T06:26:05.910Z,13.63
2023-01-12T06:28:33.064Z,18.20
2023-01-12T06:31:01.232Z,14.73
2023-01-12T06:33:28.602Z,19.40
2023-01-12T06:35:55.979Z,16.87
2023-01-12T06:38:23.811Z,17.40
2023-01-12T06:40:51.032Z,12.60
2023-01-12T06:43:17.861Z,15.97
2023-01-12T06:45:44.791Z,16.50
2023-01-12T06:48:12.184Z,13.50
2023-01-12T06:50:38.998Z,15.87
2023-01-12T06:53:07.258Z,19.00
2023-01-12T06:55:34.206Z,14.70
2023-01-12T06:58:01.723Z,22.03
2023-01-12T07:00:28.620Z,32.27
2023-01-12T07:02:55.497Z,21.53
2023-01-12T07:05:22.375Z,20.73
2023-01-12T07:07:49.344Z,18.20
2023-01-12T07:10:17.634Z,16.53
2023-01-12T07:12:44.412Z,16.53
2023-01-12T07:15:11.611Z,19.07
2023-01-12T07:17:38.444Z,19.43
2023-01-12T07:20:05.638Z,17.27
2023-01-12T07:22:32.854Z,20.77
2023-01-12T07:24:59.753Z,21.07
2023-01-12T07:27:26.503Z,20.47
2023-01-12T07:29:53.390Z,22.77
2023-01-12T07:32:20.158Z,21.47
2023-01-12T07:34:47.006Z,22.80
2023-01-12T07:37:14.403Z,18.87
2023-01-12T07:39:41.685Z,20.80
2023-01-12T07:42:23.740Z,21.43
2023-01-12T07:44:51.565Z,21.30
2023-01-12T07:47:18.344Z,21.30
2023-01-12T07:49:45.322Z,23.13
2023-01-12T07:52:12.614Z,22.47
2023-01-12T07:54:39.413Z,22.00
2023-01-12T07:57:10.459Z,28.63
2023-01-12T07:59:37.597Z,26.23
2023-01-12T08:02:04.914Z,27.60
2023-01-12T08:04:31.779Z,19.93
2023-01-12T08:06:58.990Z,19.70
2023-01-12T08:09:25.857Z,22.87
2023-01-12T08:11:52.754Z,22.80
2023-01-12T08:14:33.633Z,27.73
2023-01-12T08:17:02.103Z,23.10
2023-01-12T08:19:32.243Z,19.90
2023-01-12T08:22:00.607Z,21.20
2023-01-12T08:24:30.666Z,21.40
2023-01-12T08:26:58.982Z,20.60
2023-01-12T08:29:33.028Z,23.17
2023-01-12T08:32:05.016Z,36.80
2023-01-12T08:34:32.419Z,25.63
2023-01-12T08:37:00.204Z,24.50
2023-01-12T08:39:29.568Z,24.00
2023-01-12T08:41:57.142Z,19.87
2023-01-12T08:44:25.366Z,23.70
2023-01-12T08:46:53.586Z,18.67
2023-01-12T08:49:24.849Z,19.83
2023-01-12T08:51:51.814Z,21.03
2023-01-12T08:54:19.873Z,19.57
2023-01-12T08:56:47.014Z,21.43
2023-01-12T08:59:13.858Z,22.47
2023-01-12T09:01:40.923Z,22.97
2023-01-12T09:04:08.110Z,20.20
2023-01-12T09:06:36.057Z,23.10
2023-01-12T09:09:08.515Z,20.97
2023-01-12T09:11:35.879Z,20.87
2023-01-12T09:14:03.000Z,22.33
2023-01-12T09:16:30.577Z,20.73
2023-01-12T09:18:57.618Z,23.10
2023-01-12T09:21:25.497Z,24.57
2023-01-12T09:23:55.594Z,22.77
2023-01-12T09:26:24.021Z,23.57
2023-01-12T09:28:51.768Z,24.40
2023-01-12T09:31:20.056Z,25.90
2023-01-12T09:33:47.295Z,25.50
2023-01-12T09:36:20.848Z,23.83
2023-01-12T09:38:48.382Z,25.20
2023-01-12T09:41:17.736Z,25.53
2023-01-12T09:44:03.589Z,25.67
2023-01-12T09:46:56.837Z,26.07
2023-01-12T09:49:32.448Z,23.90
2023-01-12T09:51:59.390Z,26.43
2023-01-12T09:54:26.222Z,20.13
2023-01-12T09:57:24.455Z,23.00
2023-01-12T10:00:02.170Z,25.67
2023-01-12T10:02:40.469Z,26.97
2023-01-12T10:05:13.594Z,26.17
2023-01-12T10:07:42.178Z,25.33
2023-01-12T10:10:10.790Z,26.33
2023-01-12T10:12:42.147Z,23.43
2023-01-12T10:15:24.264Z,24.47
2023-01-12T10:18:10.315Z,24.33
2023-01-12T10:20:42.085Z,29.07
2023-01-12T10:23:09.028Z,24.07
2023-01-12T10:25:35.798Z,24.50
2023-01-12T10:28:21.380Z,24.73
2023-01-12T10:30:48.471Z,23.80
2023-01-12T10:33:18.375Z,29.40
2023-01-12T10:35:58.952Z,27.03
2023-01-12T10:38:25.834Z,24.80
2023-01-12T10:41:06.674Z,26.83
2023-01-12T10:43:36.415Z,25.60
2023-01-12T10:46:03.438Z,34.43
2023-01-12T10:48:31.206Z,25.40
2023-01-12T10:50:59.272Z,25.90
2023-01-12T10:53:38.366Z,25.30
2023-01-12T10:56:19.268Z,24.87
2023-01-12T10:58:51.789Z,19.37
2023-01-12T11:01:18.895Z,21.23
2023-01-12T11:03:45.665Z,26.97
2023-01-12T11:06:16.399Z,28.67
2023-01-12T11:08:43.758Z,24.27
2023-01-12T11:11:23.811Z,21.53
2023-01-12T11:13:55.323Z,20.20
2023-01-12T11:16:24.544Z,21.43
2023-01-12T11:18:51.464Z,23.93
2023-01-12T11:21:21.146Z,24.60
2023-01-12T11:23:52.366Z,23.17
2023-01-12T11:26:33.307Z,19.40
2023-01-12T11:29:17.498Z,18.67
2023-01-12T11:31:44.810Z,23.93
2023-01-12T11:34:17.032Z,25.57
2023-01-12T11:36:47.011Z,17.77
2023-01-12T11:39:15.429Z,20.97
2023-01-12T11:42:12.961Z,19.67
2023-01-12T11:44:42.779Z,17.90
2023-01-12T11:47:19.444Z,19.93
2023-01-12T11:49:49.151Z,22.40
2023-01-12T11:52:16.797Z,19.53
2023-01-12T11:54:43.978Z,17.37
2023-01-12T11:57:29.682Z,20.10
2023-01-12T12:00:05.825Z,12.43
2023-01-12T12:02:37.801Z,17.27
2023-01-12T12:05:13.666Z,19.73
2023-01-12T12:07:59.052Z,16.47
2023-01-12T12:10:32.149Z,17.67
2023-01-12T12:13:02.052Z,14.43
2023-01-12T12:15:41.092Z,14.13
2023-01-12T12:18:26.423Z,13.20
2023-01-12T12:21:02.351Z,14.33
2023-01-12T12:23:58.677Z,16.27
2023-01-12T12:26:31.087Z,13.83
2023-01-12T12:29:10.283Z,16.07
2023-01-12T12:31:46.333Z,13.47
2023-01-12T12:34:25.717Z,12.77
2023-01-12T12:37:12.927Z,12.20
2023-01-12T12:39:48.661Z,10.87
2023-01-12T12:42:42.941Z,10.03
2023-01-12T12:45:30.322Z,12.40
2023-01-12T12:48:10.092Z,11.13
2023-01-12T12:50:47.342Z,13.27
2023-01-12T12:53:21.746Z,12.97
2023-01-12T12:55:50.535Z,9.47
2023-01-12T12:58:24.259Z,12.30
2023-01-12T13:00:52.829Z,10.40
2023-01-12T13:03:40.540Z,10.50
2023-01-12T13:06:10.433Z,8.47
2023-01-12T13:08:39.377Z,10.60
2023-01-12T13:11:07.849Z,7.27
2023-01-12T13:13:39.250Z,11.13
2023-01-12T13:16:16.174Z,12.27
2023-01-12T13:18:49.200Z,13.77
2023-01-12T13:21:28.029Z,9.60
2023-01-12T13:24:14.953Z,13.80
2023-01-12T13:26:53.139Z,10.20
2023-01-12T13:29:23.160Z,13.57
2023-01-12T13:31:56.311Z,12.87
2023-01-12T13:34:29.874Z,11.20
2023-01-12T13:37:09.090Z,8.70
2023-01-12T13:39:38.060Z,14.57
2023-01-12T13:42:26.204Z,8.63
2023-01-12T13:44:54.305Z,12.93
2023-01-12T13:47:25.730Z,11.60
2023-01-12T13:49:56.679Z,9.67
2023-01-12T13:52:31.256Z,12.23
2023-01-12T13:54:58.342Z,13.70
2023-01-12T13:57:26.544Z,8.77
2023-01-12T14:00:01.060Z,14.17
2023-01-12T14:02:30.291Z,13.97
2023-01-12T14:05:17.356Z,11.97
2023-01-12T14:08:02.826Z,10.43
2023-01-12T14:10:38.856Z,12.93
2023-01-12T14:13:05.774Z,11.37
2023-01-12T14:16:01.523Z,12.43
2023-01-12T14:18:48.642Z,10.33
2023-01-12T14:21:29.359Z,13.07
2023-01-12T14:24:16.187Z,11.17
2023-01-12T14:26:43.287Z,8.37
2023-01-12T14:29:11.601Z,11.63
2023-01-12T14:31:52.575Z,11.23
2023-01-12T14:34:36.489Z,10.20
2023-01-12T14:37:17.816Z,9.80
2023-01-12T14:39:46.453Z,11.17
2023-01-12T14:42:34.824Z,10.63
2023-01-12T14:45:20.439Z,9.97
2023-01-12T14:47:47.378Z,14.73
2023-01-12T14:50:14.132Z,9.57
2023-01-12T14:52:42.269Z,16.43
2023-01-12T14:55:14.989Z,9.10
2023-01-12T14:57:42.137Z,10.53
2023-01-12T15:00:19.701Z,7.50
2023-01-12T15:02:49.587Z,12.33
2023-01-12T15:05:22.190Z,14.57
2023-01-12T15:07:55.023Z,9.97
2023-01-12T15:10:35.121Z,10.97
2023-01-12T15:13:20.582Z,13.90
2023-01-12T15:16:06.059Z,7.43
2023-01-12T15:18:53.817Z,6.93
2023-01-12T15:21:39.905Z,13.30
2023-01-12T15:24:40.694Z,16.50
2023-01-12T15:27:08.499Z,3.70
2023-01-12T15:29:35.397Z,13.73
2023-01-12T15:32:03.083Z,13.73
2023-01-12T15:34:30.422Z,11.70
2023-01-12T15:36:57.270Z,13.50
2023-01-12T15:39:24.098Z,12.30
2023-01-12T15:42:09.699Z,14.87
2023-01-12T15:44:38.831Z,7.50
2023-01-12T15:47:15.326Z,12.93
2023-01-12T15:49:43.252Z,13.60
2023-01-12T15:52:12.924Z,11.83
2023-01-12T15:54:39.898Z,10.30
2023-01-12T15:57:06.912Z,7.80
2023-01-12T15:59:34.068Z,11.77
2023-01-12T16:02:00.909Z,11.93
2023-01-12T16:04:42.885Z,19.23
2023-01-12T16:07:10.274Z,12.33
2023-01-12T16:09:37.027Z,15.80
2023-01-12T16:12:04.048Z,12.10
2023-01-12T16:14:30.944Z,9.70
2023-01-12T16:16:57.845Z,15.33
2023-01-12T16:19:24.832Z,12.57
2023-01-12T16:21:55.353Z,14.10
2023-01-12T16:24:24.720Z,10.33
2023-01-12T16:26:51.717Z,15.00
2023-01-12T16:29:19.405Z,19.20
2023-01-12T16:31:46.361Z,14.50
2023-01-12T16:34:13.185Z,4.60
2023-01-12T16:36:40.188Z,9.67
2023-01-12T16:39:07.050Z,11.63
2023-01-12T16:41:33.873Z,9.83
2023-01-12T16:44:00.655Z,16.10
2023-01-12T16:46:27.480Z,13.37
2023-01-12T16:48:56.002Z,10.83
2023-01-12T16:51:22.941Z,18.97
2023-01-12T16:53:51.585Z,16.50
2023-01-12T16:56:18.667Z,17.83
2023-01-12T16:58:48.716Z,11.60
2023-01-12T17:01:17.700Z,10.20
2023-01-12T17:03:44.907Z,10.23
2023-01-12T17:06:12.975Z,14.00
2023-01-12T17:08:41.920Z,10.13
2023-01-12T17:11:09.853Z,10.53
2023-01-12T17:13:37.136Z,12.07
2023-01-12T17:16:06.728Z,9.63
2023-01-12T17:18:34.179Z,10.57
2023-01-12T17:21:01.717Z,12.70
2023-01-12T17:23:28.844Z,8.27
2023-01-12T17:25:55.968Z,6.37
2023-01-12T17:28:22.894Z,7.63
2023-01-12T17:30:49.983Z,9.13
2023-01-12T17:33:17.235Z,10.40
2023-01-12T17:35:44.187Z,13.37
2023-01-12T17:38:11.028Z,11.70
2023-01-12T17:40:38.685Z,12.43
2023-01-12T17:43:13.220Z,9.70
2023-01-12T17:45:42.681Z,8.97
2023-01-12T17:48:10.577Z,9.97
2023-01-12T17:50:39.105Z,9.70
2023-01-12T17:53:09.482Z,13.73
2023-01-12T17:55:47.354Z,16.37
2023-01-12T17:58:17.685Z,15.77
2023-01-12T18:00:44.543Z,12.60
2023-01-12T18:03:11.439Z,16.90
2023-01-12T18:05:38.586Z,29.73
2023-01-12T18:08:05.624Z,13.00
2023-01-12T18:10:32.437Z,18.60
2023-01-12T18:12:59.356Z,17.03
2023-01-12T18:15:26.607Z,16.90
2023-01-12T18:17:53.480Z,16.87
2023-01-12T18:20:20.500Z,20.03
2023-01-12T18:22:47.413Z,16.43
2023-01-12T18:25:14.358Z,18.93
2023-01-12T18:27:41.201Z,15.33
2023-01-12T18:30:08.530Z,21.07
2023-01-12T18:32:35.465Z,19.13
2023-01-12T18:35:02.682Z,16.70
2023-01-12T18:37:29.901Z,18.47
2023-01-12T18:39:56.742Z,14.37
2023-01-12T18:42:42.019Z,18.53
2023-01-12T18:45:09.242Z,17.77
2023-01-12T18:47:54.685Z,17.17
2023-01-12T18:50:39.977Z,20.07
2023-01-12T18:53:33.802Z,13.57
2023-01-12T18:56:03.991Z,17.43
2023-01-12T18:58:34.515Z,14.97
2023-01-12T19:01:03.893Z,19.80
2023-01-12T19:03:30.984Z,15.93
2023-01-12T19:06:10.324Z,20.23
2023-01-12T19:08:55.930Z,16.63
2023-01-12T19:11:22.863Z,14.33
2023-01-12T19:14:27.824Z,19.10
2023-01-12T19:17:13.120Z,13.60
2023-01-12T19:19:39.987Z,16.13
2023-01-12T19:22:25.494Z,17.00
2023-01-12T19:25:10.822Z,13.97
2023-01-12T19:27:56.306Z,15.77
2023-01-12T19:30:23.563Z,13.30
2023-01-12T19:32:50.586Z,10.90
2023-01-12T19:35:17.496Z,17.70
2023-01-12T19:37:48.132Z,16.30
2023-01-12T19:40:17.837Z,13.93
2023-01-12T19:43:03.110Z,13.37
2023-01-12T19:45:30.133Z,15.87
2023-01-12T19:47:57.029Z,15.53
2023-01-12T19:50:24.061Z,14.80
2023-01-12T19:52:50.947Z,15.30
2023-01-12T19:55:17.729Z,14.37
2023-01-12T19:57:44.753Z,13.10
2023-01-12T20:00:15.322Z,12.97
2023-01-12T20:02:43.000Z,11.77
2023-01-12T20:05:13.290Z,13.27
2023-01-12T20:07:40.497Z,15.23
2023-01-12T20:10:07.498Z,14.30
2023-01-12T20:12:34.399Z,12.20
2023-01-12T20:15:01.274Z,11.63
2023-01-12T20:17:28.197Z,10.07
2023-01-12T20:19:54.959Z,12.10
2023-01-12T20:22:21.910Z,12.73
2023-01-12T20:24:49.190Z,15.30
2023-01-12T20:27:16.165Z,16.17
2023-01-12T20:29:43.051Z,9.30
2023-01-12T20:32:10.049Z,12.40
2023-01-12T20:34:36.993Z,8.80
2023-01-12T20:37:03.911Z,9.83
2023-01-12T20:39:31.088Z,14.67
2023-01-12T20:41:58.409Z,14.97
2023-01-12T20:44:25.835Z,12.90
2023-01-12T20:46:53.175Z,8.10
2023-01-12T20:49:22.508Z,14.60
2023-01-12T20:51:49.702Z,11.70
2023-01-12T20:54:16.815Z,12.03
2023-01-12T20:56:44.232Z,11.00
2023-01-12T20:59:11.614Z,14.70
2023-01-12T21:01:39.163Z,15.83
2023-01-12T21:04:06.755Z,11.50
2023-01-12T21:06:35.191Z,9.70
2023-01-12T21:09:02.260Z,12.83
2023-01-12T21:11:29.737Z,9.80
2023-01-12T21:13:57.106Z,10.80
2023-01-12T21:16:24.083Z,11.70
2023-01-12T21:18:51.810Z,11.13
2023-01-12T21:21:18.929Z,11.43
2023-01-12T21:23:47.391Z,8.07
2023-01-12T21:26:15.727Z,8.53
2023-01-12T21:28:43.523Z,11.60
2023-01-12T21:31:12.021Z,9.37
2023-01-12T21:33:39.438Z,10.23
2023-01-12T21:36:06.906Z,12.60
2023-01-12T21:38:34.796Z,10.27
2023-01-12T21:41:03.783Z,11.53
2023-01-12T21:43:31.139Z,13.53
2023-01-12T21:46:03.185Z,9.40
2023-01-12T21:48:30.337Z,10.23
2023-01-12T21:51:03.863Z,9.80
2023-01-12T21:53:31.289Z,13.03
2023-01-12T21:56:00.657Z,16.10
2023-01-12T21:58:29.788Z,10.73
2023-01-12T22:00:57.524Z,12.13
2023-01-12T22:03:25.369Z,10.20
2023-01-12T22:05:52.411Z,11.93
2023-01-12T22:08:19.838Z,10.90
2023-01-12T22:10:47.154Z,9.93
2023-01-12T22:13:16.077Z,9.93
2023-01-12T22:15:43.460Z,13.37
2023-01-12T22:18:10.277Z,11.97
2023-01-12T22:20:38.889Z,8.50
2023-01-12T22:23:05.676Z,9.80
2023-01-12T22:25:32.808Z,8.33
2023-01-12T22:27:59.640Z,7.67
2023-01-12T22:30:27.935Z,10.80
2023-01-12T22:32:55.995Z,8.63
2023-01-12T22:35:22.933Z,9.27
2023-01-12T22:37:49.800Z,7.60
2023-01-12T22:40:16.959Z,8.03
2023-01-12T22:43:02.093Z,6.03
2023-01-12T22:45:29.078Z,10.43
2023-01-12T22:47:56.478Z,11.00
2023-01-12T22:50:24.199Z,9.23
2023-01-12T22:52:52.947Z,13.90
2023-01-12T22:55:20.575Z,8.00
2023-01-12T22:57:47.666Z,7.10
2023-01-12T23:00:17.120Z,9.13
2023-01-12T23:03:02.754Z,5.93
2023-01-12T23:05:35.452Z,9.17
2023-01-12T23:08:03.162Z,7.70
2023-01-12T23:10:30.540Z,7.97
2023-01-12T23:13:17.568Z,8.03
2023-01-12T23:15:56.843Z,9.97
2023-01-12T23:18:29.712Z,8.53
2023-01-12T23:21:01.654Z,7.33
2023-01-12T23:23:30.854Z,11.73
2023-01-12T23:26:02.188Z,8.70
2023-01-12T23:28:29.834Z,8.27
2023-01-12T23:31:05.204Z,6.33
2023-01-12T23:33:32.478Z,10.17
2023-01-12T23:36:04.296Z,6.53
2023-01-12T23:38:32.562Z,5.93
2023-01-12T23:41:00.592Z,8.97
2023-01-12T23:43:28.065Z,8.40
2023-01-12T23:45:55.245Z,9.67
2023-01-12T23:48:23.934Z,7.43
2023-01-12T23:50:51.158Z,4.63
2023-01-12T23:53:19.332Z,5.70
2023-01-12T23:55:46.752Z,7.10
2023-01-12T23:58:14.210Z,7.67
